Time;durP1;ratioP1;P1;durP2;ratioP2;P2;SDS_P1;SDS_P2;PMS_P1;PMS_P2;Temp;Humidity;BMP_temperature;BMP_pressure;BME280_temperature;BME280_humidity;BME280_pressure;Samples;Min_cycle;Max_cycle;Signal;HPM_P1;HPM_P2
2023/11/09 00:04:33;;;;;;;0.68;0.52;;;;;;;7.65;100.00;97788.03;15269422;19;20421;-47
2023/11/09 00:10:00;;;;;;;0.68;0.47;;;;;;;7.68;100.00;97768.94;15274025;19;20019;-43
2023/11/09 00:15:30;;;;;;;1.38;0.50;;;;;;;7.77;100.00;97766.31;15264025;19;20475;-44
2023/11/09 00:20:55;;;;;;;0.60;0.50;;;;;;;7.75;100.00;97762.94;15268146;19;20017;-44
2023/11/09 00:26:20;;;;;;;3.30;0.63;;;;;;;7.75;100.00;97752.22;15259417;19;20033;-45
2023/11/09 00:31:54;;;;;;;0.93;0.43;;;;;;;7.70;100.00;97745.47;15280173;19;20074;-46
2023/11/09 00:37:21;;;;;;;0.65;0.50;;;;;;;7.69;100.00;97746.50;15283774;19;20043;-45
2023/11/09 00:42:45;;;;;;;1.65;0.60;;;;;;;7.64;100.00;97740.78;15286033;19;20013;-44
2023/11/09 00:48:13;;;;;;;2.30;0.50;;;;;;;7.60;100.00;97725.16;15282986;19;20039;-43
2023/11/09 00:53:39;;;;;;;0.82;0.43;;;;;;;7.56;100.00;97721.97;15278857;19;20027;-43
2023/11/09 00:59:06;;;;;;;1.70;0.57;;;;;;;7.54;100.00;97714.06;15276225;19;20014;-45
2023/11/09 01:04:35;;;;;;;1.17;0.43;;;;;;;7.50;100.00;97709.19;15281213;19;20011;-47
2023/11/09 01:10:02;;;;;;;1.73;0.60;;;;;;;7.46;100.00;97697.13;15284310;19;20034;-48
2023/11/09 01:15:27;;;;;;;0.77;0.50;;;;;;;7.44;100.00;97688.41;15279500;19;20078;-47
2023/11/09 01:20:56;;;;;;;0.95;0.50;;;;;;;7.48;100.00;97687.06;15281703;19;20074;-50
2023/11/09 01:26:20;;;;;;;1.05;0.52;;;;;;;7.46;100.00;97689.91;15277534;19;20083;-45
2023/11/09 01:31:45;;;;;;;0.35;0.30;;;;;;;7.43;100.00;97674.16;15273951;19;20413;-49
2023/11/09 01:37:14;;;;;;;2.72;0.50;;;;;;;7.37;100.00;97670.25;15277020;19;20014;-47
2023/11/09 01:42:39;;;;;;;1.20;0.60;;;;;;;7.28;100.00;97671.22;15280544;19;20022;-47
2023/11/09 01:48:04;;;;;;;0.40;0.40;;;;;;;7.21;100.00;97664.84;15275303;19;20408;-44
2023/11/09 01:53:32;;;;;;;1.02;0.55;;;;;;;7.14;100.00;97651.22;15282086;19;20074;-43
2023/11/09 01:58:57;;;;;;;1.85;0.60;;;;;;;7.08;100.00;97646.50;15278854;19;20022;-44
2023/11/09 02:04:23;;;;;;;1.38;0.55;;;;;;;7.25;100.00;97642.06;15272232;19;20010;-47
2023/11/09 02:09:51;;;;;;;1.10;0.50;;;;;;;7.39;100.00;97629.94;15275702;19;20370;-45
2023/11/09 02:15:16;;;;;;;2.28;0.70;;;;;;;7.49;100.00;97635.13;15271626;19;20014;-49
2023/11/09 02:20:41;;;;;;;2.80;0.80;;;;;;;7.49;100.00;97635.13;15278720;19;20730;-48
2023/11/09 02:26:09;;;;;;;1.30;0.90;;;;;;;7.50;100.00;97626.09;15269538;19;20791;-47
2023/11/09 02:31:41;;;;;;;2.17;0.63;;;;;;;7.57;100.00;97616.44;15275024;19;20676;-45
2023/11/09 02:37:08;;;;;;;0.88;0.60;;;;;;;7.50;100.00;97620.75;15265733;19;20039;-48
2023/11/09 02:42:36;;;;;;;1.38;0.70;;;;;;;7.42;100.00;97613.50;15279023;19;20018;-49
2023/11/09 02:48:01;;;;;;;1.50;0.77;;;;;;;7.34;100.00;97605.44;15271833;19;20018;-47
2023/11/09 02:53:26;;;;;;;1.17;0.60;;;;;;;7.27;100.00;97607.91;15271971;19;20490;-45
2023/11/09 02:58:56;;;;;;;2.58;0.73;;;;;;;7.20;100.00;97598.84;15273865;19;20020;-46
2023/11/09 03:04:20;;;;;;;1.83;0.80;;;;;;;7.15;100.00;97603.84;15271145;19;20403;-48
2023/11/09 03:09:45;;;;;;;2.20;0.80;;;;;;;7.12;100.00;97596.13;15268292;19;20046;-47
2023/11/09 03:15:13;;;;;;;1.33;0.65;;;;;;;7.09;100.00;97590.09;15270663;19;20366;-47
2023/11/09 03:20:38;;;;;;;2.15;0.90;;;;;;;7.07;100.00;97575.16;15274512;19;20445;-49
2023/11/09 03:26:05;;;;;;;1.13;0.70;;;;;;;7.06;100.00;97568.13;15267976;19;20758;-49
2023/11/09 03:31:39;;;;;;;2.03;0.90;;;;;;;7.03;100.00;97561.28;15271747;19;20464;-48
2023/11/09 03:37:05;;;;;;;1.08;0.70;;;;;;;7.07;100.00;97564.47;15267005;19;20020;-45
2023/11/09 03:42:30;;;;;;;1.50;0.65;;;;;;;7.11;100.00;97551.63;15270304;19;20476;-47
2023/11/09 03:47:59;;;;;;;1.40;0.70;;;;;;;7.12;100.00;97543.41;15269506;19;20085;-50
2023/11/09 03:53:25;;;;;;;0.77;0.77;;;;;;;7.11;100.00;97527.50;15272112;19;20014;-49
2023/11/09 03:58:51;;;;;;;2.45;0.70;;;;;;;7.04;100.00;97514.75;15269726;19;20514;-47
2023/11/09 04:04:18;;;;;;;1.65;0.73;;;;;;;7.00;100.00;97510.69;15263591;19;20021;-46
2023/11/09 04:09:43;;;;;;;3.63;0.68;;;;;;;7.03;100.00;97488.13;15282250;19;20411;-50
2023/11/09 04:15:09;;;;;;;1.08;0.60;;;;;;;7.06;100.00;97493.16;15274994;19;20029;-48
2023/11/09 04:20:37;;;;;;;0.98;0.60;;;;;;;7.14;100.00;97489.66;15287036;19;20017;-50
2023/11/09 04:26:02;;;;;;;1.63;0.70;;;;;;;7.22;100.00;97487.84;15281022;19;20031;-50
2023/11/09 04:31:36;;;;;;;1.05;0.55;;;;;;;7.28;100.00;97486.38;15281195;19;20029;-46
2023/11/09 04:37:11;;;;;;;3.28;0.70;;;;;;;7.31;100.00;97461.94;15278589;19;20022;-51
2023/11/09 04:42:36;;;;;;;2.40;0.77;;;;;;;7.34;100.00;97464.28;15285236;19;20006;-48
2023/11/09 04:48:08;;;;;;;1.25;0.70;;;;;;;7.33;100.00;97451.91;15274086;19;20097;-46
2023/11/09 04:53:41;;;;;;;2.10;0.80;;;;;;;7.36;100.00;97453.41;15283457;19;20378;-48
2023/11/09 05:06:48;;;;;;;1.70;0.63;;;;;;;7.39;100.00;97445.03;15282804;19;20485;-47
2023/11/09 05:10:34;;;;;;;1.60;0.70;;;;;;;7.34;100.00;97434.81;15281994;19;20074;-47
2023/11/09 05:16:00;;;;;;;1.02;0.70;;;;;;;7.31;100.00;97434.28;15271085;19;20026;-45
2023/11/09 05:21:26;;;;;;;1.33;0.63;;;;;;;7.27;100.00;97436.47;15278828;19;20011;-48
2023/11/09 05:26:53;;;;;;;1.27;0.70;;;;;;;7.28;100.00;97423.91;15273934;19;20078;-49
2023/11/09 05:32:18;;;;;;;2.85;0.80;;;;;;;7.28;100.00;97419.38;15276568;19;20633;-46
2023/11/09 05:37:42;;;;;;;1.95;0.85;;;;;;;7.28;100.00;97407.84;15277168;19;20025;-49
2023/11/09 05:43:11;;;;;;;1.08;0.73;;;;;;;7.25;100.00;97390.25;15278710;19;20016;-48
2023/11/09 05:48:35;;;;;;;0.60;0.60;;;;;;;7.24;100.00;97391.25;15268962;19;20014;-48
2023/11/09 05:54:00;;;;;;;1.10;0.80;;;;;;;7.22;100.00;97393.28;15277415;19;20536;-50
2023/11/09 05:59:29;;;;;;;1.65;0.80;;;;;;;7.19;100.00;97381.03;15278026;19;20019;-46
2023/11/09 06:04:54;;;;;;;0.90;0.60;;;;;;;7.18;100.00;97381.19;15274742;19;20015;-51
2023/11/09 06:10:19;;;;;;;0.93;0.57;;;;;;;7.21;100.00;97380.88;15278107;19;20012;-47
2023/11/09 06:15:47;;;;;;;1.30;0.73;;;;;;;7.22;100.00;97369.16;15272645;19;20017;-51
2023/11/09 06:21:14;;;;;;;1.15;0.70;;;;;;;7.21;100.00;97372.84;15270762;19;20539;-47
2023/11/09 06:26:39;;;;;;;1.10;0.68;;;;;;;7.20;100.00;97368.50;15267127;19;20017;-47
2023/11/09 06:32:07;;;;;;;2.05;0.70;;;;;;;7.19;100.00;97367.63;15272570;19;20494;-47
2023/11/09 06:37:32;;;;;;;1.27;0.73;;;;;;;7.22;100.00;97361.94;15272845;19;20007;-47
2023/11/09 06:42:58;;;;;;;2.00;0.80;;;;;;;7.21;100.00;97351.41;15272498;19;20089;-46
2023/11/09 06:48:26;;;;;;;1.27;0.70;;;;;;;7.22;100.00;97358.44;15270319;19;20014;-52
2023/11/09 06:53:50;;;;;;;0.73;0.63;;;;;;;7.24;100.00;97364.47;15267935;19;20018;-52
2023/11/09 06:59:15;;;;;;;0.98;0.70;;;;;;;7.26;100.00;97370.50;15270581;19;20010;-48
2023/11/09 07:04:42;;;;;;;0.90;0.60;;;;;;;7.32;100.00;97355.59;15268087;19;20027;-50
2023/11/09 07:10:08;;;;;;;0.65;0.60;;;;;;;7.39;100.00;97357.44;15274798;19;20025;-50
2023/11/09 07:15:33;;;;;;;0.70;0.60;;;;;;;7.44;100.00;97364.97;15268329;19;20017;-48
2023/11/09 07:21:02;;;;;;;1.00;0.50;;;;;;;7.50;100.00;97358.09;15271177;19;20036;-48
2023/11/09 07:26:30;;;;;;;0.83;0.60;;;;;;;7.57;100.00;97351.09;15259711;19;20018;-45
2023/11/09 07:32:01;;;;;;;1.58;0.60;;;;;;;7.62;100.00;97346.03;15269518;19;20022;-51
2023/11/09 07:37:29;;;;;;;2.47;0.70;;;;;;;7.68;100.00;97345.38;15267558;19;20336;-51
2023/11/09 07:42:55;;;;;;;4.10;0.60;;;;;;;7.76;100.00;97330.28;15265421;19;20289;-46
2023/11/09 07:48:21;;;;;;;3.05;0.60;;;;;;;7.84;100.00;97328.41;15261637;19;20023;-49
2023/11/09 07:53:48;;;;;;;0.90;0.65;;;;;;;7.92;100.00;97324.03;15265508;19;20645;-50
2023/11/09 07:59:19;;;;;;;3.05;0.50;;;;;;;8.04;100.00;97327.19;15263526;19;20040;-46
2023/11/09 08:04:46;;;;;;;0.97;0.53;;;;;;;8.14;100.00;97317.09;15266668;19;20416;-48
2023/11/09 08:10:13;;;;;;;2.13;0.70;;;;;;;8.24;100.00;97307.00;15264462;19;20018;-49
2023/11/09 08:15:39;;;;;;;0.77;0.50;;;;;;;8.29;100.00;97293.88;15265127;19;20351;-50
2023/11/09 08:21:03;;;;;;;1.42;0.60;;;;;;;8.34;100.00;97298.75;15269397;19;20020;-46
2023/11/09 08:26:32;;;;;;;0.40;0.40;;;;;;;8.42;100.00;97304.06;15260333;19;20018;-49
2023/11/09 08:32:04;;;;;;;1.27;0.50;;;;;;;8.45;100.00;97305.56;15260108;19;20029;-49
2023/11/09 08:37:29;;;;;;;0.70;0.40;;;;;;;8.51;100.00;97309.44;15256660;19;20021;-50
2023/11/09 08:42:57;;;;;;;1.33;0.70;;;;;;;8.58;100.00;97324.66;15267007;19;20007;-48
2023/11/09 08:48:24;;;;;;;1.63;0.60;;;;;;;8.69;100.00;97331.50;15262340;19;20021;-50
2023/11/09 08:53:50;;;;;;;0.88;0.50;;;;;;;8.76;100.00;97340.50;15280128;19;20039;-50
2023/11/09 08:59:18;;;;;;;0.85;0.60;;;;;;;8.88;100.00;97340.94;15277622;19;20022;-47
2023/11/09 09:04:43;;;;;;;1.38;0.55;;;;;;;9.01;100.00;97339.50;15271350;19;20055;-48
2023/11/09 09:10:15;;;;;;;0.60;0.60;;;;;;;9.12;100.00;97336.41;15274527;19;20023;-50
2023/11/09 09:15:45;;;;;;;0.77;0.67;;;;;;;9.25;100.00;97327.75;15276717;19;20014;-49
2023/11/09 09:21:11;;;;;;;0.70;0.55;;;;;;;9.37;100.00;97328.16;15279078;19;20371;-50
2023/11/09 09:26:35;;;;;;;1.13;0.70;;;;;;;9.49;100.00;97324.03;15273422;19;20081;-48
2023/11/09 09:32:04;;;;;;;0.60;0.45;;;;;;;9.61;100.00;97334.34;15274954;19;20824;-47
2023/11/09 09:37:32;;;;;;;0.68;0.60;;;;;;;9.74;100.00;97339.94;15273013;19;20027;-48
2023/11/09 09:42:58;;;;;;;2.38;0.52;;;;;;;9.90;100.00;97355.06;15279791;19;20014;-47
2023/11/09 09:48:27;;;;;;;1.10;0.50;;;;;;;10.03;100.00;97349.06;15276488;19;20013;-46
2023/11/09 09:53:56;;;;;;;0.95;0.57;;;;;;;10.09;100.00;97348.31;15278949;19;20014;-49
2023/11/09 09:59:22;;;;;;;3.85;0.63;;;;;;;10.16;100.00;97341.19;15280063;19;20020;-49
2023/11/09 10:04:51;;;;;;;1.00;0.50;;;;;;;10.24;100.00;97334.88;15270824;19;20017;-48
2023/11/09 10:10:18;;;;;;;0.95;0.55;;;;;;;10.30;100.00;97333.28;15265579;19;20082;-50
2023/11/09 10:15:44;;;;;;;0.98;0.45;;;;;;;10.32;100.00;97328.56;15273715;19;20018;-48
2023/11/09 10:21:12;;;;;;;1.25;0.43;;;;;;;10.29;100.00;97331.66;15276577;19;20025;-50
2023/11/09 10:26:40;;;;;;;0.68;0.50;;;;;;;10.22;100.00;97315.41;15270813;19;20053;-49
2023/11/09 10:32:04;;;;;;;0.93;0.70;;;;;;;10.19;100.00;97315.75;15274611;19;20017;-48
2023/11/09 10:37:33;;;;;;;4.00;0.50;;;;;;;10.20;100.00;97321.97;15273657;19;20007;-49
2023/11/09 10:43:04;;;;;;;2.83;0.50;;;;;;;10.23;100.00;97305.44;15270512;19;20078;-46
2023/11/09 10:48:32;;;;;;;4.53;0.80;;;;;;;10.26;100.00;97302.41;15272707;19;20448;-50
2023/11/09 10:53:59;;;;;;;1.55;0.70;;;;;;;10.26;100.00;97300.53;15272785;19;20011;-48
2023/11/09 10:59:24;;;;;;;0.85;0.60;;;;;;;10.27;100.00;97286.03;15271052;19;20501;-48
2023/11/09 11:04:55;;;;;;;2.17;0.70;;;;;;;10.30;100.00;97279.44;15270709;19;20022;-48
2023/11/09 11:10:24;;;;;;;1.10;0.70;;;;;;;10.37;100.00;97272.31;15269301;19;20018;-50
2023/11/09 11:16:18;;;;;;;1.02;0.60;;;;;;;10.44;100.00;97278.63;15268357;19;20021;-49
2023/11/09 11:21:58;;;;;;;1.48;0.60;;;;;;;10.48;100.00;97277.25;15272148;19;20014;-50
2023/11/09 11:27:33;;;;;;;0.63;0.60;;;;;;;10.51;100.00;97283.28;15268709;19;20427;-47
2023/11/09 11:33:07;;;;;;;0.70;0.60;;;;;;;10.53;100.00;97279.34;15269237;19;20017;-46
2023/11/09 11:38:35;;;;;;;1.40;0.60;;;;;;;10.63;100.00;97292.53;15268764;19;20035;-50
2023/11/09 11:44:03;;;;;;;2.80;0.40;;;;;;;10.74;100.00;97285.78;15264704;19;20020;-48
2023/11/09 11:49:29;;;;;;;0.40;0.40;;;;;;;10.92;100.00;97286.22;15266289;19;20780;-48
2023/11/09 11:54:57;;;;;;;0.28;0.28;;;;;;;11.09;100.00;97267.09;15266418;19;20025;-46
2023/11/09 12:00:38;;;;;;;2.33;0.70;;;;;;;11.17;100.00;97268.81;15270618;19;20364;-45
2023/11/09 12:06:13;;;;;;;3.72;0.50;;;;;;;11.15;100.00;97263.63;15265810;19;20131;-50
2023/11/09 12:11:45;;;;;;;0.75;0.50;;;;;;;11.17;100.00;97268.81;15270567;19;20379;-51
2023/11/09 12:17:13;;;;;;;3.47;0.55;;;;;;;11.17;100.00;97252.63;15261480;19;20016;-44
2023/11/09 12:22:37;;;;;;;1.95;0.60;;;;;;;11.10;100.00;97248.03;15269046;19;20410;-44
2023/11/09 12:28:02;;;;;;;0.95;0.47;;;;;;;10.99;100.00;97256.66;15278031;19;20082;-49
2023/11/09 12:33:34;;;;;;;0.50;0.45;;;;;;;10.87;100.00;97253.63;15277132;19;20023;-47
2023/11/09 12:38:59;;;;;;;0.98;0.50;;;;;;;10.76;100.00;97252.25;15280283;19;20102;-46
2023/11/09 12:44:26;;;;;;;3.53;0.50;;;;;;;10.74;100.00;97259.72;15279540;19;20236;-47
2023/11/09 12:50:02;;;;;;;3.63;0.60;;;;;;;10.67;100.00;97266.03;15272343;19;20025;-45
2023/11/09 12:55:28;;;;;;;2.80;0.40;;;;;;;10.52;100.00;97266.09;15276679;19;20352;-45
2023/11/09 13:00:54;;;;;;;3.33;0.55;;;;;;;10.37;100.00;97269.63;15280178;19;20040;-46
2023/11/09 13:06:26;;;;;;;2.22;0.40;;;;;;;10.23;100.00;97267.78;15273621;19;20022;-45
2023/11/09 13:11:51;;;;;;;0.90;0.50;;;;;;;10.12;100.00;97261.84;15273831;19;20018;-49
2023/11/09 13:17:18;;;;;;;0.73;0.50;;;;;;;10.08;100.00;97254.34;15277143;19;20389;-48
2023/11/09 13:22:48;;;;;;;0.88;0.70;;;;;;;10.04;100.00;97256.56;15273744;19;20039;-45
2023/11/09 13:28:14;;;;;;;1.70;0.52;;;;;;;10.04;100.00;97253.88;15276571;19;20722;-50
2023/11/09 13:33:47;;;;;;;2.20;0.63;;;;;;;9.96;100.00;97238.66;15274281;19;20019;-45
2023/11/09 13:44:53;;;;;;;1.48;0.60;;;;;;;10.00;100.00;97231.06;15274486;19;20063;-48
2023/11/09 13:50:22;;;;;;;0.68;0.55;;;;;;;10.03;100.00;97230.69;15273512;19;20492;-46
2023/11/09 13:56:11;;;;;;;2.38;0.60;;;;;;;9.98;100.00;97260.00;15265238;19;20007;-48
2023/11/09 14:01:39;;;;;;;2.45;0.40;;;;;;;9.92;100.00;97245.44;15275935;19;20367;-50
2023/11/09 14:07:08;;;;;;;0.43;0.40;;;;;;;9.86;100.00;97262.34;15276677;19;20093;-47
2023/11/09 14:12:49;;;;;;;1.03;0.57;;;;;;;9.84;100.00;97240.16;15300317;19;20010;-48
2023/11/09 14:18:35;;;;;;;1.85;0.40;;;;;;;9.81;100.00;97245.91;15271198;19;20344;-50
2023/11/09 14:23:59;;;;;;;1.98;0.50;;;;;;;9.81;100.00;97237.81;15275717;19;20014;-48
2023/11/09 14:29:26;;;;;;;1.15;0.40;;;;;;;9.83;100.00;97241.19;15271223;19;20019;-47
2023/11/09 14:34:53;;;;;;;2.95;0.38;;;;;;;9.77;100.00;97225.75;15271061;19;20014;-47
2023/11/09 14:40:23;;;;;;;1.70;0.50;;;;;;;9.74;100.00;97216.22;15273008;19;20006;-47
2023/11/09 14:45:52;;;;;;;2.38;0.50;;;;;;;9.72;100.00;97212.88;15267060;19;20018;-50
2023/11/09 14:51:24;;;;;;;1.42;0.70;;;;;;;9.72;100.00;97215.56;15268516;19;20015;-47
2023/11/09 14:56:50;;;;;;;3.17;0.40;;;;;;;9.67;100.00;97204.53;15261557;19;20014;-50
2023/11/09 15:02:20;;;;;;;0.73;0.32;;;;;;;9.64;100.00;97205.72;15236543;19;20031;-45
2023/11/09 15:07:54;;;;;;;2.13;0.70;;;;;;;9.58;100.00;97190.34;15270713;19;20074;-46
2023/11/09 15:13:20;;;;;;;2.40;0.50;;;;;;;9.54;100.00;97186.34;15270973;19;20743;-51
2023/11/09 15:18:47;;;;;;;1.20;0.52;;;;;;;9.49;100.00;97184.22;15266492;19;20078;-48
2023/11/09 15:24:12;;;;;;;1.52;0.68;;;;;;;9.44;100.00;97178.59;15267524;19;20022;-51
2023/11/09 15:29:36;;;;;;;0.98;0.68;;;;;;;9.40;100.00;97182.66;15262580;19;20019;-48
2023/11/09 15:35:05;;;;;;;0.80;0.50;;;;;;;9.35;100.00;97168.94;15266842;19;20014;-51
2023/11/09 15:40:29;;;;;;;0.60;0.50;;;;;;;9.30;100.00;97158.72;15260185;19;20497;-50
2023/11/09 15:46:15;;;;;;;2.92;0.43;;;;;;;9.24;100.00;97146.84;15264917;19;20022;-50
2023/11/09 15:51:43;;;;;;;1.20;0.52;;;;;;;9.23;100.00;97145.19;15266129;19;20022;-52
2023/11/09 15:57:11;;;;;;;0.77;0.50;;;;;;;9.23;100.00;97149.75;15263728;19;20046;-52
2023/11/09 16:02:35;;;;;;;1.17;0.60;;;;;;;9.22;100.00;97148.91;15275827;19;20037;-50
2023/11/09 16:08:04;;;;;;;2.47;0.70;;;;;;;9.24;100.00;97136.09;15280972;19;20120;-46
2023/11/09 16:13:29;;;;;;;1.00;0.70;;;;;;;9.24;100.00;97132.59;15272646;19;21334;-49
2023/11/09 16:18:54;;;;;;;0.95;0.63;;;;;;;9.26;100.00;97125.19;15279918;19;20022;-49
2023/11/09 16:24:28;;;;;;;1.10;0.60;;;;;;;9.25;100.00;97137.78;15277980;19;20032;-50
2023/11/09 16:29:52;;;;;;;0.57;0.57;;;;;;;9.28;100.00;97130.38;15276980;19;20021;-51
2023/11/09 16:35:22;;;;;;;0.68;0.60;;;;;;;9.28;100.00;97128.53;15272225;19;20022;-47
2023/11/09 16:40:50;;;;;;;0.82;0.70;;;;;;;9.29;100.00;97132.88;15279619;19;20014;-48
2023/11/09 16:46:15;;;;;;;0.85;0.60;;;;;;;9.31;100.00;97136.22;15274089;19;20018;-50
2023/11/09 16:51:41;;;;;;;1.73;0.70;;;;;;;9.39;100.00;97140.66;15277450;19;20019;-47
2023/11/09 16:57:10;;;;;;;1.08;0.80;;;;;;;9.41;100.00;97139.44;15272676;19;20022;-48
2023/11/09 17:02:36;;;;;;;1.98;0.80;;;;;;;9.45;100.00;97145.31;14768922;19;10001010;-49
2023/11/09 17:08:00;;;;;;;0.70;0.63;;;;;;;9.49;100.00;97143.09;15272939;19;20024;-49
2023/11/09 17:13:27;;;;;;;1.27;1.17;;;;;;;9.50;100.00;97142.88;15276258;19;20018;-46
2023/11/09 17:18:53;;;;;;;0.73;0.55;;;;;;;9.57;100.00;97140.28;15275924;19;20024;-50
2023/11/09 17:24:19;;;;;;;0.65;0.60;;;;;;;9.56;100.00;97136.78;15273485;19;20028;-48
2023/11/09 17:29:47;;;;;;;0.80;0.70;;;;;;;9.58;100.00;97135.75;15277633;19;20364;-50
2023/11/09 17:35:11;;;;;;;0.68;0.68;;;;;;;9.59;100.00;97132.88;15276683;19;20010;-49
2023/11/09 17:40:36;;;;;;;0.73;0.60;;;;;;;9.59;100.00;97142.78;15272065;19;20049;-47
2023/11/09 17:46:04;;;;;;;1.52;0.50;;;;;;;9.60;100.00;97148.00;15267972;19;20019;-46
2023/11/09 17:51:30;;;;;;;1.98;0.70;;;;;;;9.61;100.00;97146.13;15272122;19;20029;-46
2023/11/09 17:56:54;;;;;;;0.90;0.80;;;;;;;9.61;100.00;97143.44;15269768;19;20014;-49
2023/11/09 18:02:22;;;;;;;0.70;0.70;;;;;;;9.62;100.00;97145.94;15271802;19;20547;-46
2023/11/09 18:07:47;;;;;;;1.33;0.77;;;;;;;9.62;100.00;97137.88;15248005;19;20014;-52
2023/11/09 18:13:11;;;;;;;0.82;0.63;;;;;;;9.64;100.00;97130.44;15265853;19;20360;-44
2023/11/09 18:18:38;;;;;;;1.08;0.73;;;;;;;9.60;100.00;97118.41;15272776;19;20126;-50
2023/11/09 18:24:04;;;;;;;0.90;0.65;;;;;;;9.58;100.00;97120.44;15271889;19;20039;-47
2023/11/09 18:29:30;;;;;;;2.42;0.82;;;;;;;9.57;100.00;97121.47;15273145;19;20093;-47
2023/11/09 18:35:06;;;;;;;1.50;0.80;;;;;;;9.54;100.00;97114.63;15269955;19;20448;-48
2023/11/09 18:40:37;;;;;;;2.05;0.80;;;;;;;9.55;100.00;97102.84;15268846;19;20021;-50
2023/11/09 18:46:03;;;;;;;0.95;0.60;;;;;;;9.57;100.00;97105.34;15261908;19;20010;-50
2023/11/09 18:51:33;;;;;;;0.60;0.60;;;;;;;9.58;100.00;97111.56;15265355;19;20645;-48
2023/11/09 18:56:59;;;;;;;0.83;0.60;;;;;;;9.59;100.00;97099.75;15266859;19;20028;-49
2023/11/09 19:02:24;;;;;;;1.02;0.50;;;;;;;9.58;100.00;97084.69;15271138;19;20015;-49
2023/11/09 19:07:52;;;;;;;0.75;0.65;;;;;;;9.58;100.00;97100.81;15268266;19;20544;-49
2023/11/09 19:13:18;;;;;;;1.00;0.60;;;;;;;9.56;100.00;97080.31;15266444;19;20025;-48
2023/11/09 19:18:43;;;;;;;1.10;0.47;;;;;;;9.58;100.00;97065.84;15263229;19;20395;-48
2023/11/09 19:24:11;;;;;;;0.55;0.50;;;;;;;9.58;100.00;97055.91;15268365;19;20427;-48
2023/11/09 19:29:35;;;;;;;0.50;0.40;;;;;;;9.55;100.00;97065.22;15268857;19;20024;-48
2023/11/09 19:35:07;;;;;;;2.40;0.70;;;;;;;9.53;100.00;97067.25;15264100;19;20411;-48
2023/11/09 19:40:35;;;;;;;0.97;0.70;;;;;;;9.52;100.00;97056.69;15268687;19;20029;-49
2023/11/09 19:46:00;;;;;;;1.25;0.80;;;;;;;9.48;100.00;97063.44;15265067;19;20067;-49
2023/11/09 19:51:27;;;;;;;1.25;0.50;;;;;;;9.44;100.00;97071.06;15251185;19;20089;-49
2023/11/09 19:56:55;;;;;;;1.08;0.80;;;;;;;9.43;100.00;97053.28;15256079;19;20086;-50
2023/11/09 20:02:20;;;;;;;1.50;0.55;;;;;;;9.40;100.00;97062.56;15262400;19;20018;-52
2023/11/09 20:07:44;;;;;;;0.60;0.60;;;;;;;9.38;100.00;97061.03;15263704;19;20508;-52
2023/11/09 20:13:13;;;;;;;0.75;0.50;;;;;;;9.34;100.00;97055.22;15256563;19;20845;-50
2023/11/09 20:18:38;;;;;;;2.22;0.70;;;;;;;9.30;100.00;97059.28;15263286;19;20027;-52
2023/11/09 20:24:03;;;;;;;0.45;0.30;;;;;;;9.28;100.00;97060.50;15259549;19;20015;-50
2023/11/09 20:29:30;;;;;;;0.55;0.32;;;;;;;9.28;100.00;97071.25;15264631;19;20620;-51
2023/11/09 20:35:03;;;;;;;0.52;0.47;;;;;;;9.32;100.00;97089.50;15262422;19;20082;-47
2023/11/09 20:40:28;;;;;;;0.52;0.35;;;;;;;9.35;100.00;97073.00;15266056;19;20043;-47
2023/11/09 20:45:55;;;;;;;1.10;0.57;;;;;;;9.38;100.00;97078.03;15264539;19;20019;-48
2023/11/09 20:51:20;;;;;;;0.75;0.40;;;;;;;9.41;100.00;97071.44;15274922;19;20051;-49
2023/11/09 20:56:44;;;;;;;0.60;0.35;;;;;;;9.41;100.00;97083.00;15272618;19;20468;-47
2023/11/09 21:02:13;;;;;;;0.77;0.40;;;;;;;9.44;100.00;97081.81;15280223;19;20018;-48
2023/11/09 21:07:37;;;;;;;0.80;0.40;;;;;;;9.44;100.00;97065.69;15273942;19;20739;-49
2023/11/09 21:13:01;;;;;;;1.40;0.50;;;;;;;9.41;100.00;97061.50;15272497;19;20487;-48
2023/11/09 21:18:29;;;;;;;1.48;0.60;;;;;;;9.40;100.00;97053.63;15276828;19;20031;-47
2023/11/09 21:23:54;;;;;;;1.25;0.40;;;;;;;9.37;100.00;97043.25;15272276;19;20103;-52
2023/11/09 21:29:19;;;;;;;2.53;0.50;;;;;;;9.29;100.00;97024.56;15271357;19;20682;-46
2023/11/09 21:34:53;;;;;;;2.03;0.60;;;;;;;9.23;100.00;97026.94;15265912;19;20936;-49
2023/11/09 21:40:19;;;;;;;1.05;0.50;;;;;;;9.08;100.00;97028.84;15273341;19;20013;-50
2023/11/09 21:45:44;;;;;;;2.47;0.60;;;;;;;9.00;100.00;97015.47;15272530;19;20480;-47
2023/11/09 21:51:11;;;;;;;2.05;0.80;;;;;;;8.92;100.00;97019.94;15273997;19;20020;-49
2023/11/09 21:56:36;;;;;;;2.80;0.80;;;;;;;8.84;100.00;97009.31;15264253;19;20024;-51
2023/11/09 22:02:01;;;;;;;1.50;0.60;;;;;;;8.82;100.00;96997.09;15276032;19;20023;-49
2023/11/09 22:07:28;;;;;;;2.25;0.70;;;;;;;8.78;100.00;97004.66;15270329;19;20021;-46
2023/11/09 22:12:54;;;;;;;4.80;1.08;;;;;;;8.69;100.00;96997.72;15272261;19;20479;-50
2023/11/09 22:18:20;;;;;;;1.63;0.68;;;;;;;8.64;100.00;96999.09;15273684;19;20078;-47
2023/11/09 22:23:48;;;;;;;3.53;0.80;;;;;;;8.54;100.00;96979.75;15273053;19;20081;-49
2023/11/09 22:29:14;;;;;;;2.95;1.05;;;;;;;8.47;100.00;96982.31;15269542;19;20017;-47
2023/11/09 22:34:45;;;;;;;2.35;0.93;;;;;;;8.41;100.00;96975.00;15269724;19;20078;-48
2023/11/09 22:40:13;;;;;;;4.23;1.00;;;;;;;8.39;100.00;96977.03;15274508;19;20014;-48
2023/11/09 22:45:38;;;;;;;2.97;0.90;;;;;;;8.34;100.00;96974.06;15270997;19;20498;-48
2023/11/09 22:51:03;;;;;;;3.42;1.15;;;;;;;8.43;100.00;96969.44;15271340;19;20014;-47
2023/11/09 22:56:30;;;;;;;4.10;0.90;;;;;;;8.44;100.00;96969.25;15269435;19;20544;-50
2023/11/09 23:01:55;;;;;;;1.73;0.80;;;;;;;8.42;100.00;96965.94;15266376;19;20085;-47
2023/11/09 23:07:19;;;;;;;2.75;0.82;;;;;;;8.40;100.00;96956.41;15270188;19;20010;-47
2023/11/09 23:12:47;;;;;;;3.17;0.77;;;;;;;8.35;100.00;96943.50;15270569;19;20385;-48
2023/11/09 23:18:14;;;;;;;3.30;0.80;;;;;;;8.33;100.00;96932.97;15270757;19;20025;-47
2023/11/09 23:23:41;;;;;;;1.70;0.60;;;;;;;8.26;100.00;96918.63;15272641;19;20082;-51
2023/11/09 23:29:08;;;;;;;4.07;1.00;;;;;;;8.23;100.00;96918.19;15270931;19;20031;-48
2023/11/09 23:34:40;;;;;;;1.63;0.60;;;;;;;8.20;100.00;96927.41;15262130;19;20011;-50
2023/11/09 23:40:05;;;;;;;2.47;0.80;;;;;;;8.12;100.00;96940.91;15270798;19;20025;-48
2023/11/09 23:45:33;;;;;;;1.05;0.70;;;;;;;8.08;100.00;96921.66;15270117;19;20081;-47
2023/11/09 23:50:58;;;;;;;2.25;0.70;;;;;;;8.12;100.00;96906.03;15270058;19;20010;-51
2023/11/09 23:56:23;;;;;;;2.38;0.70;;;;;;;8.13;100.00;96907.69;15268304;19;20014;-45
